sensor_id;sensor_type;location;lat;lon;timestamp;P1;durP1;ratioP1;P2;durP2;ratioP2
69981;SDS011;57319;56.274;43.980;2023-04-15T00:02:13;1.25;;;1.05;;
69981;SDS011;57319;56.274;43.980;2023-04-15T00:04:46;1.58;;;1.00;;
69981;SDS011;57319;56.274;43.980;2023-04-15T00:07:12;0.82;;;0.82;;
69981;SDS011;57319;56.274;43.980;2023-04-15T00:09:39;0.80;;;0.80;;
69981;SDS011;57319;56.274;43.980;2023-04-15T00:12:05;0.90;;;0.90;;
69981;SDS011;57319;56.274;43.980;2023-04-15T00:14:33;2.85;;;1.17;;
69981;SDS011;57319;56.274;43.980;2023-04-15T00:17:00;1.00;;;1.00;;
69981;SDS011;57319;56.274;43.980;2023-04-15T00:19:25;1.13;;;1.02;;
69981;SDS011;57319;56.274;43.980;2023-04-15T00:21:51;3.00;;;1.00;;
69981;SDS011;57319;56.274;43.980;2023-04-15T00:24:17;1.17;;;0.75;;
69981;SDS011;57319;56.274;43.980;2023-04-15T00:26:42;0.82;;;0.75;;
69981;SDS011;57319;56.274;43.980;2023-04-15T00:29:08;0.88;;;0.88;;
69981;SDS011;57319;56.274;43.980;2023-04-15T00:31:33;2.42;;;0.98;;
69981;SDS011;57319;56.274;43.980;2023-04-15T00:33:59;7.00;;;1.10;;
69981;SDS011;57319;56.274;43.980;2023-04-15T00:36:24;0.90;;;0.90;;
69981;SDS011;57319;56.274;43.980;2023-04-15T00:38:50;5.13;;;1.27;;
69981;SDS011;57319;56.274;43.980;2023-04-15T00:41:16;0.95;;;0.95;;
69981;SDS011;57319;56.274;43.980;2023-04-15T00:43:43;1.67;;;0.85;;
69981;SDS011;57319;56.274;43.980;2023-04-15T00:46:09;1.45;;;1.00;;
69981;SDS011;57319;56.274;43.980;2023-04-15T00:48:37;0.70;;;0.70;;
69981;SDS011;57319;56.274;43.980;2023-04-15T00:51:03;0.75;;;0.75;;
69981;SDS011;57319;56.274;43.980;2023-04-15T00:53:29;1.88;;;0.68;;
69981;SDS011;57319;56.274;43.980;2023-04-15T00:55:54;1.05;;;1.05;;
69981;SDS011;57319;56.274;43.980;2023-04-15T00:58:20;1.00;;;1.00;;
69981;SDS011;57319;56.274;43.980;2023-04-15T01:00:46;2.15;;;1.23;;
69981;SDS011;57319;56.274;43.980;2023-04-15T01:03:13;3.40;;;0.80;;
69981;SDS011;57319;56.274;43.980;2023-04-15T01:05:39;1.00;;;1.00;;
69981;SDS011;57319;56.274;43.980;2023-04-15T01:08:05;1.05;;;0.95;;
69981;SDS011;57319;56.274;43.980;2023-04-15T01:10:31;1.00;;;1.00;;
69981;SDS011;57319;56.274;43.980;2023-04-15T01:12:57;1.20;;;0.75;;
69981;SDS011;57319;56.274;43.980;2023-04-15T01:15:23;1.50;;;1.13;;
69981;SDS011;57319;56.274;43.980;2023-04-15T01:17:49;8.40;;;1.42;;
69981;SDS011;57319;56.274;43.980;2023-04-15T01:20:15;1.50;;;1.13;;
69981;SDS011;57319;56.274;43.980;2023-04-15T01:22:41;1.13;;;1.05;;
69981;SDS011;57319;56.274;43.980;2023-04-15T01:25:15;1.20;;;1.20;;
69981;SDS011;57319;56.274;43.980;2023-04-15T01:27:43;1.20;;;1.20;;
69981;SDS011;57319;56.274;43.980;2023-04-15T01:30:08;1.65;;;1.13;;
69981;SDS011;57319;56.274;43.980;2023-04-15T01:32:34;0.88;;;0.88;;
69981;SDS011;57319;56.274;43.980;2023-04-15T01:35:19;1.02;;;1.00;;
69981;SDS011;57319;56.274;43.980;2023-04-15T01:37:46;0.95;;;0.95;;
69981;SDS011;57319;56.274;43.980;2023-04-15T01:40:12;2.15;;;1.38;;
69981;SDS011;57319;56.274;43.980;2023-04-15T01:42:39;1.23;;;1.10;;
69981;SDS011;57319;56.274;43.980;2023-04-15T01:45:06;1.95;;;1.40;;
69981;SDS011;57319;56.274;43.980;2023-04-15T01:47:34;1.13;;;1.13;;
69981;SDS011;57319;56.274;43.980;2023-04-15T01:50:00;0.70;;;0.70;;
69981;SDS011;57319;56.274;43.980;2023-04-15T01:52:27;0.88;;;0.88;;
69981;SDS011;57319;56.274;43.980;2023-04-15T01:54:54;0.77;;;0.77;;
69981;SDS011;57319;56.274;43.980;2023-04-15T01:57:21;6.40;;;1.35;;
69981;SDS011;57319;56.274;43.980;2023-04-15T01:59:48;7.30;;;1.50;;
69981;SDS011;57319;56.274;43.980;2023-04-15T02:02:15;0.90;;;0.90;;
69981;SDS011;57319;56.274;43.980;2023-04-15T02:04:42;3.92;;;0.95;;
69981;SDS011;57319;56.274;43.980;2023-04-15T02:07:10;1.73;;;0.90;;
69981;SDS011;57319;56.274;43.980;2023-04-15T02:09:36;1.73;;;1.10;;
69981;SDS011;57319;56.274;43.980;2023-04-15T02:12:04;0.93;;;0.90;;
69981;SDS011;57319;56.274;43.980;2023-04-15T02:14:31;1.70;;;1.00;;
69981;SDS011;57319;56.274;43.980;2023-04-15T02:16:58;2.25;;;1.10;;
69981;SDS011;57319;56.274;43.980;2023-04-15T02:22:01;3.70;;;1.00;;
69981;SDS011;57319;56.274;43.980;2023-04-15T02:24:29;2.03;;;0.98;;
69981;SDS011;57319;56.274;43.980;2023-04-15T02:26:56;1.25;;;0.90;;
69981;SDS011;57319;56.274;43.980;2023-04-15T02:29:23;1.35;;;1.15;;
69981;SDS011;57319;56.274;43.980;2023-04-15T02:31:50;1.00;;;1.00;;
69981;SDS011;57319;56.274;43.980;2023-04-15T02:34:17;1.05;;;0.95;;
69981;SDS011;57319;56.274;43.980;2023-04-15T02:36:43;0.98;;;0.95;;
69981;SDS011;57319;56.274;43.980;2023-04-15T02:39:12;2.13;;;1.27;;
69981;SDS011;57319;56.274;43.980;2023-04-15T02:41:42;1.95;;;1.10;;
69981;SDS011;57319;56.274;43.980;2023-04-15T02:44:09;0.90;;;0.90;;
69981;SDS011;57319;56.274;43.980;2023-04-15T02:46:38;1.27;;;0.80;;
69981;SDS011;57319;56.274;43.980;2023-04-15T02:49:06;6.18;;;1.20;;
69981;SDS011;57319;56.274;43.980;2023-04-15T02:51:33;1.00;;;1.00;;
69981;SDS011;57319;56.274;43.980;2023-04-15T02:54:00;2.28;;;0.90;;
69981;SDS011;57319;56.274;43.980;2023-04-15T02:56:27;2.15;;;1.00;;
69981;SDS011;57319;56.274;43.980;2023-04-15T02:58:55;0.80;;;0.80;;
69981;SDS011;57319;56.274;43.980;2023-04-15T03:01:22;0.95;;;0.95;;
69981;SDS011;57319;56.274;43.980;2023-04-15T03:03:49;2.08;;;0.88;;
69981;SDS011;57319;56.274;43.980;2023-04-15T03:06:16;2.28;;;1.27;;
69981;SDS011;57319;56.274;43.980;2023-04-15T03:08:43;0.88;;;0.88;;
69981;SDS011;57319;56.274;43.980;2023-04-15T03:11:09;1.45;;;1.30;;
69981;SDS011;57319;56.274;43.980;2023-04-15T03:13:36;1.50;;;1.00;;
69981;SDS011;57319;56.274;43.980;2023-04-15T03:16:05;1.23;;;1.13;;
69981;SDS011;57319;56.274;43.980;2023-04-15T03:18:32;0.98;;;0.98;;
69981;SDS011;57319;56.274;43.980;2023-04-15T03:20:58;1.08;;;0.98;;
69981;SDS011;57319;56.274;43.980;2023-04-15T03:23:25;1.13;;;0.90;;
69981;SDS011;57319;56.274;43.980;2023-04-15T03:25:52;0.95;;;0.95;;
69981;SDS011;57319;56.274;43.980;2023-04-15T03:28:22;0.88;;;0.88;;
69981;SDS011;57319;56.274;43.980;2023-04-15T03:30:49;1.23;;;0.82;;
69981;SDS011;57319;56.274;43.980;2023-04-15T03:33:16;1.17;;;1.17;;
69981;SDS011;57319;56.274;43.980;2023-04-15T03:35:43;3.95;;;0.95;;
69981;SDS011;57319;56.274;43.980;2023-04-15T03:38:10;1.35;;;0.98;;
69981;SDS011;57319;56.274;43.980;2023-04-15T03:40:37;4.60;;;0.90;;
69981;SDS011;57319;56.274;43.980;2023-04-15T03:43:06;1.27;;;1.10;;
69981;SDS011;57319;56.274;43.980;2023-04-15T03:45:33;5.15;;;1.08;;
69981;SDS011;57319;56.274;43.980;2023-04-15T03:48:00;0.98;;;0.98;;
69981;SDS011;57319;56.274;43.980;2023-04-15T03:50:27;1.10;;;1.10;;
69981;SDS011;57319;56.274;43.980;2023-04-15T03:52:54;3.90;;;0.88;;
69981;SDS011;57319;56.274;43.980;2023-04-15T03:55:21;1.33;;;1.15;;
69981;SDS011;57319;56.274;43.980;2023-04-15T03:57:48;7.57;;;1.05;;
69981;SDS011;57319;56.274;43.980;2023-04-15T04:00:14;0.93;;;0.93;;
69981;SDS011;57319;56.274;43.980;2023-04-15T04:02:41;1.02;;;0.95;;
69981;SDS011;57319;56.274;43.980;2023-04-15T04:05:08;3.42;;;0.93;;
69981;SDS011;57319;56.274;43.980;2023-04-15T04:07:35;7.45;;;1.23;;
69981;SDS011;57319;56.274;43.980;2023-04-15T04:10:02;2.67;;;0.70;;
69981;SDS011;57319;56.274;43.980;2023-04-15T04:12:29;1.55;;;1.45;;
69981;SDS011;57319;56.274;43.980;2023-04-15T04:14:56;0.80;;;0.80;;
69981;SDS011;57319;56.274;43.980;2023-04-15T04:17:23;1.23;;;1.10;;
69981;SDS011;57319;56.274;43.980;2023-04-15T04:19:50;1.50;;;0.77;;
69981;SDS011;57319;56.274;43.980;2023-04-15T04:22:17;4.20;;;1.05;;
69981;SDS011;57319;56.274;43.980;2023-04-15T04:24:47;5.78;;;0.95;;
69981;SDS011;57319;56.274;43.980;2023-04-15T04:27:14;2.47;;;1.13;;
69981;SDS011;57319;56.274;43.980;2023-04-15T04:29:41;5.60;;;0.95;;
69981;SDS011;57319;56.274;43.980;2023-04-15T04:32:08;1.08;;;0.95;;
69981;SDS011;57319;56.274;43.980;2023-04-15T04:34:35;3.95;;;0.95;;
69981;SDS011;57319;56.274;43.980;2023-04-15T04:37:02;1.30;;;0.90;;
69981;SDS011;57319;56.274;43.980;2023-04-15T04:39:29;1.33;;;1.23;;
69981;SDS011;57319;56.274;43.980;2023-04-15T04:41:56;6.60;;;1.25;;
69981;SDS011;57319;56.274;43.980;2023-04-15T04:44:23;3.20;;;1.30;;
69981;SDS011;57319;56.274;43.980;2023-04-15T04:46:50;2.30;;;1.45;;
69981;SDS011;57319;56.274;43.980;2023-04-15T04:49:16;5.03;;;1.30;;
69981;SDS011;57319;56.274;43.980;2023-04-15T04:51:43;4.82;;;1.30;;
69981;SDS011;57319;56.274;43.980;2023-04-15T04:54:10;1.23;;;1.13;;
69981;SDS011;57319;56.274;43.980;2023-04-15T04:56:37;0.88;;;0.80;;
69981;SDS011;57319;56.274;43.980;2023-04-15T04:59:05;1.10;;;1.05;;
69981;SDS011;57319;56.274;43.980;2023-04-15T05:01:32;1.10;;;1.10;;
69981;SDS011;57319;56.274;43.980;2023-04-15T05:03:59;3.00;;;1.42;;
69981;SDS011;57319;56.274;43.980;2023-04-15T05:06:26;1.10;;;1.02;;
69981;SDS011;57319;56.274;43.980;2023-04-15T05:08:55;0.95;;;0.95;;
69981;SDS011;57319;56.274;43.980;2023-04-15T05:11:22;1.23;;;1.17;;
69981;SDS011;57319;56.274;43.980;2023-04-15T05:13:49;4.82;;;1.15;;
69981;SDS011;57319;56.274;43.980;2023-04-15T05:16:16;4.25;;;1.30;;
69981;SDS011;57319;56.274;43.980;2023-04-15T05:18:43;2.05;;;1.25;;
69981;SDS011;57319;56.274;43.980;2023-04-15T05:21:09;2.60;;;1.70;;
69981;SDS011;57319;56.274;43.980;2023-04-15T05:23:36;1.27;;;1.20;;
69981;SDS011;57319;56.274;43.980;2023-04-15T05:26:03;4.10;;;1.20;;
69981;SDS011;57319;56.274;43.980;2023-04-15T05:28:30;1.08;;;1.08;;
69981;SDS011;57319;56.274;43.980;2023-04-15T05:30:57;3.30;;;1.13;;
69981;SDS011;57319;56.274;43.980;2023-04-15T05:33:24;2.92;;;1.08;;
69981;SDS011;57319;56.274;43.980;2023-04-15T05:35:51;7.57;;;1.10;;
69981;SDS011;57319;56.274;43.980;2023-04-15T05:38:18;1.13;;;0.98;;
69981;SDS011;57319;56.274;43.980;2023-04-15T05:40:45;3.63;;;1.35;;
69981;SDS011;57319;56.274;43.980;2023-04-15T05:43:12;3.70;;;1.10;;
69981;SDS011;57319;56.274;43.980;2023-04-15T05:45:39;1.77;;;1.55;;
69981;SDS011;57319;56.274;43.980;2023-04-15T05:48:05;1.60;;;1.35;;
69981;SDS011;57319;56.274;43.980;2023-04-15T05:50:32;1.33;;;1.23;;
69981;SDS011;57319;56.274;43.980;2023-04-15T05:52:59;1.00;;;1.00;;
69981;SDS011;57319;56.274;43.980;2023-04-15T05:55:26;1.05;;;1.00;;
69981;SDS011;57319;56.274;43.980;2023-04-15T05:57:53;1.30;;;1.25;;
69981;SDS011;57319;56.274;43.980;2023-04-15T06:00:19;1.58;;;1.10;;
69981;SDS011;57319;56.274;43.980;2023-04-15T06:02:46;1.30;;;1.20;;
69981;SDS011;57319;56.274;43.980;2023-04-15T06:05:13;4.75;;;1.67;;
69981;SDS011;57319;56.274;43.980;2023-04-15T06:07:40;2.45;;;1.58;;
69981;SDS011;57319;56.274;43.980;2023-04-15T06:10:09;1.40;;;1.30;;
69981;SDS011;57319;56.274;43.980;2023-04-15T06:12:36;1.77;;;1.58;;
69981;SDS011;57319;56.274;43.980;2023-04-15T06:15:03;5.32;;;1.55;;
69981;SDS011;57319;56.274;43.980;2023-04-15T06:17:31;2.55;;;1.52;;
69981;SDS011;57319;56.274;43.980;2023-04-15T06:19:58;13.15;;;1.10;;
69981;SDS011;57319;56.274;43.980;2023-04-15T06:22:25;1.10;;;1.10;;
69981;SDS011;57319;56.274;43.980;2023-04-15T06:24:52;3.28;;;1.38;;
69981;SDS011;57319;56.274;43.980;2023-04-15T06:27:19;3.60;;;1.27;;
69981;SDS011;57319;56.274;43.980;2023-04-15T06:29:46;2.05;;;1.30;;
69981;SDS011;57319;56.274;43.980;2023-04-15T06:32:13;1.95;;;1.58;;
69981;SDS011;57319;56.274;43.980;2023-04-15T06:34:40;4.40;;;1.30;;
69981;SDS011;57319;56.274;43.980;2023-04-15T06:37:06;10.13;;;1.80;;
69981;SDS011;57319;56.274;43.980;2023-04-15T06:39:36;1.50;;;1.40;;
69981;SDS011;57319;56.274;43.980;2023-04-15T06:42:03;3.10;;;0.98;;
69981;SDS011;57319;56.274;43.980;2023-04-15T06:44:30;3.05;;;0.85;;
69981;SDS011;57319;56.274;43.980;2023-04-15T06:46:57;4.28;;;1.10;;
69981;SDS011;57319;56.274;43.980;2023-04-15T06:49:24;3.78;;;1.33;;
69981;SDS011;57319;56.274;43.980;2023-04-15T06:51:50;1.27;;;1.17;;
69981;SDS011;57319;56.274;43.980;2023-04-15T06:54:18;3.22;;;1.85;;
69981;SDS011;57319;56.274;43.980;2023-04-15T06:56:45;4.47;;;1.40;;
69981;SDS011;57319;56.274;43.980;2023-04-15T06:59:12;2.95;;;1.42;;
69981;SDS011;57319;56.274;43.980;2023-04-15T07:01:39;5.90;;;1.15;;
69981;SDS011;57319;56.274;43.980;2023-04-15T07:04:07;1.08;;;1.08;;
69981;SDS011;57319;56.274;43.980;2023-04-15T07:06:34;1.25;;;1.15;;
69981;SDS011;57319;56.274;43.980;2023-04-15T07:09:01;1.13;;;1.00;;
69981;SDS011;57319;56.274;43.980;2023-04-15T07:11:29;1.88;;;1.77;;
69981;SDS011;57319;56.274;43.980;2023-04-15T07:13:56;1.48;;;1.48;;
69981;SDS011;57319;56.274;43.980;2023-04-15T07:16:23;1.73;;;1.17;;
69981;SDS011;57319;56.274;43.980;2023-04-15T07:18:50;6.68;;;1.02;;
69981;SDS011;57319;56.274;43.980;2023-04-15T07:21:17;4.55;;;1.33;;
69981;SDS011;57319;56.274;43.980;2023-04-15T07:23:44;6.18;;;1.67;;
69981;SDS011;57319;56.274;43.980;2023-04-15T07:26:11;3.92;;;1.42;;
69981;SDS011;57319;56.274;43.980;2023-04-15T07:28:38;1.10;;;1.10;;
69981;SDS011;57319;56.274;43.980;2023-04-15T07:31:04;10.43;;;1.38;;
69981;SDS011;57319;56.274;43.980;2023-04-15T07:33:31;1.67;;;1.20;;
69981;SDS011;57319;56.274;43.980;2023-04-15T07:35:58;10.23;;;1.50;;
69981;SDS011;57319;56.274;43.980;2023-04-15T07:38:25;3.28;;;1.35;;
69981;SDS011;57319;56.274;43.980;2023-04-15T07:40:51;3.50;;;1.45;;
69981;SDS011;57319;56.274;43.980;2023-04-15T07:43:18;1.23;;;1.13;;
69981;SDS011;57319;56.274;43.980;2023-04-15T07:45:46;3.20;;;1.10;;
69981;SDS011;57319;56.274;43.980;2023-04-15T07:48:13;21.05;;;1.80;;
69981;SDS011;57319;56.274;43.980;2023-04-15T07:50:40;3.90;;;1.48;;
69981;SDS011;57319;56.274;43.980;2023-04-15T07:53:06;4.68;;;1.00;;
69981;SDS011;57319;56.274;43.980;2023-04-15T07:55:33;2.70;;;1.45;;
69981;SDS011;57319;56.274;43.980;2023-04-15T07:58:00;1.85;;;1.42;;
69981;SDS011;57319;56.274;43.980;2023-04-15T08:00:27;1.88;;;1.50;;
69981;SDS011;57319;56.274;43.980;2023-04-15T08:02:55;3.92;;;1.00;;
69981;SDS011;57319;56.274;43.980;2023-04-15T08:05:22;6.63;;;1.48;;
69981;SDS011;57319;56.274;43.980;2023-04-15T08:07:49;2.15;;;1.20;;
69981;SDS011;57319;56.274;43.980;2023-04-15T08:10:17;1.52;;;1.42;;
69981;SDS011;57319;56.274;43.980;2023-04-15T08:12:43;5.65;;;1.50;;
69981;SDS011;57319;56.274;43.980;2023-04-15T08:15:14;6.85;;;2.35;;
69981;SDS011;57319;56.274;43.980;2023-04-15T08:17:41;1.40;;;1.20;;
69981;SDS011;57319;56.274;43.980;2023-04-15T08:20:08;2.67;;;1.27;;
69981;SDS011;57319;56.274;43.980;2023-04-15T08:22:36;2.13;;;1.40;;
69981;SDS011;57319;56.274;43.980;2023-04-15T08:25:02;10.40;;;1.50;;
69981;SDS011;57319;56.274;43.980;2023-04-15T08:27:29;1.65;;;1.48;;
69981;SDS011;57319;56.274;43.980;2023-04-15T08:29:56;1.52;;;1.02;;
69981;SDS011;57319;56.274;43.980;2023-04-15T08:32:23;1.58;;;1.25;;
69981;SDS011;57319;56.274;43.980;2023-04-15T08:34:51;1.17;;;1.10;;
69981;SDS011;57319;56.274;43.980;2023-04-15T08:37:18;3.08;;;0.98;;
69981;SDS011;57319;56.274;43.980;2023-04-15T08:39:45;1.17;;;1.08;;
69981;SDS011;57319;56.274;43.980;2023-04-15T08:42:15;6.47;;;1.00;;
69981;SDS011;57319;56.274;43.980;2023-04-15T08:44:43;1.25;;;1.15;;
69981;SDS011;57319;56.274;43.980;2023-04-15T08:47:12;2.17;;;1.50;;
69981;SDS011;57319;56.274;43.980;2023-04-15T08:49:43;1.55;;;1.10;;
69981;SDS011;57319;56.274;43.980;2023-04-15T08:52:10;1.30;;;1.27;;
69981;SDS011;57319;56.274;43.980;2023-04-15T08:54:37;2.63;;;1.38;;
69981;SDS011;57319;56.274;43.980;2023-04-15T08:57:04;1.30;;;1.30;;
69981;SDS011;57319;56.274;43.980;2023-04-15T08:59:32;5.20;;;1.20;;
69981;SDS011;57319;56.274;43.980;2023-04-15T09:01:58;2.45;;;1.40;;
69981;SDS011;57319;56.274;43.980;2023-04-15T09:04:26;5.30;;;1.45;;
69981;SDS011;57319;56.274;43.980;2023-04-15T09:06:54;1.27;;;1.15;;
69981;SDS011;57319;56.274;43.980;2023-04-15T09:09:22;2.88;;;1.55;;
69981;SDS011;57319;56.274;43.980;2023-04-15T09:11:49;1.10;;;1.08;;
69981;SDS011;57319;56.274;43.980;2023-04-15T09:14:16;5.18;;;1.40;;
69981;SDS011;57319;56.274;43.980;2023-04-15T09:16:56;3.58;;;1.30;;
69981;SDS011;57319;56.274;43.980;2023-04-15T09:19:24;3.28;;;1.48;;
69981;SDS011;57319;56.274;43.980;2023-04-15T09:21:54;12.23;;;1.50;;
69981;SDS011;57319;56.274;43.980;2023-04-15T09:24:23;2.00;;;1.25;;
69981;SDS011;57319;56.274;43.980;2023-04-15T09:26:54;4.95;;;1.15;;
69981;SDS011;57319;56.274;43.980;2023-04-15T09:29:23;1.25;;;1.20;;
69981;SDS011;57319;56.274;43.980;2023-04-15T09:31:53;8.55;;;1.98;;
69981;SDS011;57319;56.274;43.980;2023-04-15T09:34:20;4.32;;;1.50;;
69981;SDS011;57319;56.274;43.980;2023-04-15T09:37:02;1.23;;;1.20;;
69981;SDS011;57319;56.274;43.980;2023-04-15T09:39:43;1.20;;;1.20;;
69981;SDS011;57319;56.274;43.980;2023-04-15T09:42:15;1.45;;;1.30;;
69981;SDS011;57319;56.274;43.980;2023-04-15T09:44:49;1.00;;;1.00;;
69981;SDS011;57319;56.274;43.980;2023-04-15T09:47:27;3.35;;;1.27;;
69981;SDS011;57319;56.274;43.980;2023-04-15T09:49:57;4.80;;;1.30;;
69981;SDS011;57319;56.274;43.980;2023-04-15T09:52:25;2.13;;;1.20;;
69981;SDS011;57319;56.274;43.980;2023-04-15T09:54:54;2.63;;;1.48;;
69981;SDS011;57319;56.274;43.980;2023-04-15T09:57:22;1.33;;;1.33;;
69981;SDS011;57319;56.274;43.980;2023-04-15T09:59:50;2.15;;;1.30;;
69981;SDS011;57319;56.274;43.980;2023-04-15T10:02:17;3.20;;;1.30;;
69981;SDS011;57319;56.274;43.980;2023-04-15T10:04:48;2.22;;;1.40;;
69981;SDS011;57319;56.274;43.980;2023-04-15T10:07:16;1.55;;;1.52;;
69981;SDS011;57319;56.274;43.980;2023-04-15T10:09:45;1.50;;;1.40;;
69981;SDS011;57319;56.274;43.980;2023-04-15T10:12:17;3.83;;;1.55;;
69981;SDS011;57319;56.274;43.980;2023-04-15T10:14:51;4.22;;;1.30;;
69981;SDS011;57319;56.274;43.980;2023-04-15T10:17:21;8.45;;;2.08;;
69981;SDS011;57319;56.274;43.980;2023-04-15T10:19:48;4.85;;;1.45;;
69981;SDS011;57319;56.274;43.980;2023-04-15T10:22:21;1.60;;;1.50;;
69981;SDS011;57319;56.274;43.980;2023-04-15T10:24:49;1.60;;;1.50;;
69981;SDS011;57319;56.274;43.980;2023-04-15T10:27:17;6.78;;;2.38;;
69981;SDS011;57319;56.274;43.980;2023-04-15T10:29:45;2.78;;;1.20;;
69981;SDS011;57319;56.274;43.980;2023-04-15T10:32:14;9.40;;;1.42;;
69981;SDS011;57319;56.274;43.980;2023-04-15T10:34:44;4.47;;;1.48;;
69981;SDS011;57319;56.274;43.980;2023-04-15T10:37:18;1.42;;;1.33;;
69981;SDS011;57319;56.274;43.980;2023-04-15T10:39:48;1.00;;;1.00;;
69981;SDS011;57319;56.274;43.980;2023-04-15T10:42:15;10.70;;;1.30;;
69981;SDS011;57319;56.274;43.980;2023-04-15T10:44:48;1.85;;;1.48;;
69981;SDS011;57319;56.274;43.980;2023-04-15T10:47:18;1.30;;;1.30;;
69981;SDS011;57319;56.274;43.980;2023-04-15T10:49:56;1.70;;;1.60;;
69981;SDS011;57319;56.274;43.980;2023-04-15T10:52:25;1.83;;;1.73;;
69981;SDS011;57319;56.274;43.980;2023-04-15T10:55:03;2.45;;;1.83;;
69981;SDS011;57319;56.274;43.980;2023-04-15T10:57:40;4.70;;;1.10;;
69981;SDS011;57319;56.274;43.980;2023-04-15T11:00:09;2.58;;;1.20;;
69981;SDS011;57319;56.274;43.980;2023-04-15T11:05:07;3.13;;;1.40;;
69981;SDS011;57319;56.274;43.980;2023-04-15T11:12:44;3.33;;;1.80;;
69981;SDS011;57319;56.274;43.980;2023-04-15T11:20:44;4.03;;;1.30;;
69981;SDS011;57319;56.274;43.980;2023-04-15T11:23:13;8.95;;;1.90;;
69981;SDS011;57319;56.274;43.980;2023-04-15T11:25:41;3.38;;;1.45;;
69981;SDS011;57319;56.274;43.980;2023-04-15T11:28:09;9.50;;;1.65;;
69981;SDS011;57319;56.274;43.980;2023-04-15T11:30:38;1.67;;;1.58;;
69981;SDS011;57319;56.274;43.980;2023-04-15T11:33:09;4.32;;;1.35;;
69981;SDS011;57319;56.274;43.980;2023-04-15T11:35:38;1.23;;;1.23;;
69981;SDS011;57319;56.274;43.980;2023-04-15T11:38:07;8.27;;;1.63;;
69981;SDS011;57319;56.274;43.980;2023-04-15T11:40:35;5.38;;;1.52;;
69981;SDS011;57319;56.274;43.980;2023-04-15T11:45:47;1.55;;;1.40;;
69981;SDS011;57319;56.274;43.980;2023-04-15T11:48:16;3.50;;;1.65;;
69981;SDS011;57319;56.274;43.980;2023-04-15T11:50:44;3.53;;;1.50;;
69981;SDS011;57319;56.274;43.980;2023-04-15T11:53:10;5.55;;;1.85;;
69981;SDS011;57319;56.274;43.980;2023-04-15T11:55:47;7.13;;;1.90;;
69981;SDS011;57319;56.274;43.980;2023-04-15T11:58:19;7.55;;;1.80;;
69981;SDS011;57319;56.274;43.980;2023-04-15T12:00:47;8.73;;;1.90;;
69981;SDS011;57319;56.274;43.980;2023-04-15T12:13:46;4.13;;;1.70;;
69981;SDS011;57319;56.274;43.980;2023-04-15T12:16:17;3.05;;;1.67;;
69981;SDS011;57319;56.274;43.980;2023-04-15T12:18:44;6.97;;;1.70;;
69981;SDS011;57319;56.274;43.980;2023-04-15T12:21:24;2.75;;;1.60;;
69981;SDS011;57319;56.274;43.980;2023-04-15T12:23:51;4.93;;;1.90;;
69981;SDS011;57319;56.274;43.980;2023-04-15T12:26:18;7.10;;;2.20;;
69981;SDS011;57319;56.274;43.980;2023-04-15T12:29:01;1.85;;;1.75;;
69981;SDS011;57319;56.274;43.980;2023-04-15T12:31:35;1.95;;;1.73;;
69981;SDS011;57319;56.274;43.980;2023-04-15T12:34:02;7.82;;;2.10;;
69981;SDS011;57319;56.274;43.980;2023-04-15T12:36:32;11.05;;;2.47;;
69981;SDS011;57319;56.274;43.980;2023-04-15T12:39:02;5.68;;;2.20;;
69981;SDS011;57319;56.274;43.980;2023-04-15T12:41:28;3.03;;;2.30;;
69981;SDS011;57319;56.274;43.980;2023-04-15T12:43:54;2.50;;;2.30;;
69981;SDS011;57319;56.274;43.980;2023-04-15T12:46:20;16.25;;;2.33;;
69981;SDS011;57319;56.274;43.980;2023-04-15T12:48:46;9.93;;;2.25;;
69981;SDS011;57319;56.274;43.980;2023-04-15T12:51:12;3.67;;;1.88;;
69981;SDS011;57319;56.274;43.980;2023-04-15T12:53:38;10.98;;;2.10;;
69981;SDS011;57319;56.274;43.980;2023-04-15T12:56:05;9.98;;;2.63;;
69981;SDS011;57319;56.274;43.980;2023-04-15T12:58:31;2.28;;;2.13;;
69981;SDS011;57319;56.274;43.980;2023-04-15T13:00:57;2.50;;;2.30;;
69981;SDS011;57319;56.274;43.980;2023-04-15T13:03:23;16.23;;;2.67;;
69981;SDS011;57319;56.274;43.980;2023-04-15T13:05:48;4.13;;;2.13;;
69981;SDS011;57319;56.274;43.980;2023-04-15T13:08:14;6.95;;;2.15;;
69981;SDS011;57319;56.274;43.980;2023-04-15T13:10:40;3.63;;;2.00;;
69981;SDS011;57319;56.274;43.980;2023-04-15T13:13:07;8.15;;;2.53;;
69981;SDS011;57319;56.274;43.980;2023-04-15T13:15:33;4.13;;;1.88;;
69981;SDS011;57319;56.274;43.980;2023-04-15T13:17:59;15.15;;;2.33;;
69981;SDS011;57319;56.274;43.980;2023-04-15T13:20:25;2.85;;;2.65;;
69981;SDS011;57319;56.274;43.980;2023-04-15T13:22:53;9.07;;;2.55;;
69981;SDS011;57319;56.274;43.980;2023-04-15T13:25:19;9.57;;;2.10;;
69981;SDS011;57319;56.274;43.980;2023-04-15T13:27:45;5.70;;;2.03;;
69981;SDS011;57319;56.274;43.980;2023-04-15T13:30:11;2.47;;;1.80;;
69981;SDS011;57319;56.274;43.980;2023-04-15T13:32:37;4.72;;;2.25;;
69981;SDS011;57319;56.274;43.980;2023-04-15T13:35:03;4.40;;;1.70;;
69981;SDS011;57319;56.274;43.980;2023-04-15T13:37:29;4.90;;;1.90;;
69981;SDS011;57319;56.274;43.980;2023-04-15T13:39:55;12.23;;;2.00;;
69981;SDS011;57319;56.274;43.980;2023-04-15T13:42:24;4.03;;;1.88;;
69981;SDS011;57319;56.274;43.980;2023-04-15T13:44:51;7.10;;;2.42;;
69981;SDS011;57319;56.274;43.980;2023-04-15T13:47:20;3.90;;;1.55;;
69981;SDS011;57319;56.274;43.980;2023-04-15T13:49:46;5.28;;;1.75;;
69981;SDS011;57319;56.274;43.980;2023-04-15T13:52:12;2.60;;;2.00;;
69981;SDS011;57319;56.274;43.980;2023-04-15T13:54:38;9.48;;;2.22;;
69981;SDS011;57319;56.274;43.980;2023-04-15T13:57:04;2.72;;;1.40;;
69981;SDS011;57319;56.274;43.980;2023-04-15T13:59:31;3.42;;;2.17;;
69981;SDS011;57319;56.274;43.980;2023-04-15T14:01:58;3.50;;;1.90;;
69981;SDS011;57319;56.274;43.980;2023-04-15T14:04:24;1.60;;;1.50;;
69981;SDS011;57319;56.274;43.980;2023-04-15T14:06:50;4.35;;;1.60;;
69981;SDS011;57319;56.274;43.980;2023-04-15T14:09:15;2.72;;;1.55;;
69981;SDS011;57319;56.274;43.980;2023-04-15T14:11:41;28.02;;;3.08;;
69981;SDS011;57319;56.274;43.980;2023-04-15T14:14:07;3.72;;;1.63;;
69981;SDS011;57319;56.274;43.980;2023-04-15T14:16:33;7.38;;;1.65;;
69981;SDS011;57319;56.274;43.980;2023-04-15T14:19:00;4.38;;;1.80;;
69981;SDS011;57319;56.274;43.980;2023-04-15T14:21:26;2.00;;;1.75;;
69981;SDS011;57319;56.274;43.980;2023-04-15T14:23:57;2.63;;;1.80;;
69981;SDS011;57319;56.274;43.980;2023-04-15T14:26:23;4.35;;;2.00;;
69981;SDS011;57319;56.274;43.980;2023-04-15T14:28:49;6.25;;;2.13;;
69981;SDS011;57319;56.274;43.980;2023-04-15T14:31:15;10.77;;;2.08;;
69981;SDS011;57319;56.274;43.980;2023-04-15T14:33:41;6.45;;;1.70;;
69981;SDS011;57319;56.274;43.980;2023-04-15T14:36:07;1.98;;;1.88;;
69981;SDS011;57319;56.274;43.980;2023-04-15T14:38:34;7.78;;;1.83;;
69981;SDS011;57319;56.274;43.980;2023-04-15T14:41:05;5.57;;;2.08;;
69981;SDS011;57319;56.274;43.980;2023-04-15T14:43:31;6.28;;;2.28;;
69981;SDS011;57319;56.274;43.980;2023-04-15T14:45:57;6.40;;;1.88;;
69981;SDS011;57319;56.274;43.980;2023-04-15T14:48:23;3.13;;;1.98;;
69981;SDS011;57319;56.274;43.980;2023-04-15T14:50:49;2.17;;;1.90;;
69981;SDS011;57319;56.274;43.980;2023-04-15T14:53:14;2.05;;;1.58;;
69981;SDS011;57319;56.274;43.980;2023-04-15T14:55:40;2.15;;;1.52;;
69981;SDS011;57319;56.274;43.980;2023-04-15T14:58:06;1.92;;;1.77;;
69981;SDS011;57319;56.274;43.980;2023-04-15T15:00:35;2.75;;;1.85;;
69981;SDS011;57319;56.274;43.980;2023-04-15T15:03:03;2.35;;;1.55;;
69981;SDS011;57319;56.274;43.980;2023-04-15T15:05:45;4.60;;;1.85;;